Time;durP1;ratioP1;P1;durP2;ratioP2;P2;SDS_P1;SDS_P2;PMS_P1;PMS_P2;Temp;Humidity;BMP_temperature;BMP_pressure;BME280_temperature;BME280_humidity;BME280_pressure;Samples;Min_cycle;Max_cycle;Signal;HPM_P1;HPM_P2
2023/03/14 00:01:50;;;;;;;24.20;14.23;;;;;;;4.24;55.90;95279.66;4975515;28;20400;-68
2023/03/14 00:04:16;;;;;;;21.50;13.55;;;;;;;4.33;54.74;95278.78;4974438;28;20335;-68
2023/03/14 00:06:43;;;;;;;27.55;15.48;;;;;;;4.52;55.32;95270.25;4977407;28;20240;-69
2023/03/14 00:09:10;;;;;;;17.67;13.23;;;;;;;4.57;54.31;95268.53;4974997;28;20296;-68
2023/03/14 00:11:36;;;;;;;16.17;10.55;;;;;;;4.41;53.42;95267.81;4973977;28;20340;-69
2023/03/14 00:14:03;;;;;;;14.80;10.77;;;;;;;4.27;52.89;95262.03;4975924;28;20302;-67
2023/03/14 00:16:31;;;;;;;8.55;6.32;;;;;;;4.17;52.27;95257.06;4975590;28;20355;-66
2023/03/14 00:18:59;;;;;;;9.82;5.90;;;;;;;4.12;52.51;95258.78;4974648;28;20718;-67
2023/03/14 00:21:26;;;;;;;10.95;5.63;;;;;;;4.12;52.95;95253.75;4973911;28;20224;-67
2023/03/14 00:23:53;;;;;;;7.05;5.45;;;;;;;4.10;52.67;95256.28;4976327;28;20287;-67
2023/03/14 00:26:21;;;;;;;6.43;5.30;;;;;;;4.05;52.80;95248.75;4976284;28;20319;-69
2023/03/14 00:28:52;;;;;;;6.75;5.55;;;;;;;4.01;52.91;95242.06;4974880;28;21529;-67
2023/03/14 00:31:18;;;;;;;6.70;5.07;;;;;;;3.95;53.05;95234.56;4974707;28;20237;-67
2023/03/14 00:33:47;;;;;;;6.90;5.25;;;;;;;4.12;53.00;95233.63;4974324;28;20263;-68
2023/03/14 00:36:15;;;;;;;6.40;4.88;;;;;;;3.98;53.15;95236.19;4977156;28;20267;-69
2023/03/14 00:38:44;;;;;;;4.68;4.28;;;;;;;3.97;52.79;95235.38;4975763;28;20655;-67
2023/03/14 00:41:12;;;;;;;5.78;5.28;;;;;;;4.03;52.69;95230.31;4974376;28;20237;-67
2023/03/14 00:43:39;;;;;;;7.18;4.68;;;;;;;4.12;52.95;95231.13;4976047;28;20279;-70
2023/03/14 00:46:07;;;;;;;7.95;4.85;;;;;;;4.12;53.11;95233.63;4973857;28;20745;-68
2023/03/14 00:48:33;;;;;;;5.60;5.10;;;;;;;3.98;52.94;95226.97;4975271;28;20292;-67
2023/03/14 00:51:02;;;;;;;6.78;4.80;;;;;;;3.91;53.52;95224.53;4975497;28;20347;-68
2023/03/14 00:53:28;;;;;;;8.05;5.55;;;;;;;3.92;53.33;95222.00;4972785;28;20668;-67
2023/03/14 00:55:55;;;;;;;6.88;5.03;;;;;;;3.98;53.76;95224.47;4974364;28;20299;-68
2023/03/14 00:58:22;;;;;;;5.90;5.30;;;;;;;4.08;53.85;95223.59;4974007;28;20398;-68
2023/03/14 01:00:48;;;;;;;5.97;5.32;;;;;;;4.00;53.63;95210.22;4973277;28;20339;-69
2023/03/14 01:03:15;;;;;;;5.45;4.93;;;;;;;3.89;54.02;95206.94;4973210;28;20331;-68
2023/03/14 01:05:42;;;;;;;5.95;5.35;;;;;;;3.99;54.29;95213.56;4973769;28;20324;-67
2023/03/14 01:08:11;;;;;;;4.90;4.47;;;;;;;4.02;54.13;95217.75;4972733;28;20228;-69
2023/03/14 01:10:39;;;;;;;8.73;6.65;;;;;;;4.10;54.17;95214.34;4973960;28;20212;-69
2023/03/14 01:13:05;;;;;;;5.97;5.38;;;;;;;4.12;54.59;95216.03;4973386;28;20221;-69
2023/03/14 01:15:33;;;;;;;7.28;5.53;;;;;;;4.10;54.96;95214.34;4975183;28;20295;-68
2023/03/14 01:17:59;;;;;;;9.40;6.47;;;;;;;4.12;55.39;95203.44;4972125;28;20320;-67
2023/03/14 01:20:26;;;;;;;9.95;6.57;;;;;;;4.07;56.28;95198.44;4975206;28;20304;-68
2023/03/14 01:22:53;;;;;;;7.88;6.47;;;;;;;4.05;56.25;95198.44;4973104;28;20217;-68
2023/03/14 01:25:21;;;;;;;8.30;7.45;;;;;;;4.06;56.22;95195.09;4974223;28;20240;-68
2023/03/14 01:27:47;;;;;;;11.95;8.45;;;;;;;3.99;56.53;95192.63;4971591;28;20244;-66
2023/03/14 01:30:14;;;;;;;14.73;8.45;;;;;;;3.84;56.90;95188.53;4975310;28;20232;-68
2023/03/14 01:32:41;;;;;;;11.73;9.00;;;;;;;3.74;57.32;95186.91;4974761;28;20766;-68
2023/03/14 01:35:08;;;;;;;15.40;8.50;;;;;;;3.63;57.61;95181.94;4975121;28;20517;-68
2023/03/14 01:37:35;;;;;;;14.00;8.73;;;;;;;3.63;57.76;95179.44;4973069;28;20367;-70
2023/03/14 01:40:03;;;;;;;15.40;9.10;;;;;;;3.68;57.67;95184.44;4975756;28;20300;-70
2023/03/14 01:42:31;;;;;;;11.90;9.80;;;;;;;3.68;58.34;95184.44;4975137;28;20321;-68
2023/03/14 01:44:59;;;;;;;15.63;10.38;;;;;;;3.64;58.32;95190.31;4974250;28;20313;-69
2023/03/14 01:47:26;;;;;;;13.88;9.55;;;;;;;3.59;59.21;95185.31;4973510;28;20315;-67
2023/03/14 01:49:57;;;;;;;15.40;9.68;;;;;;;3.61;58.94;95170.22;4973123;28;20672;-68
2023/03/14 01:52:31;;;;;;;14.30;10.80;;;;;;;3.59;59.39;95161.84;4975933;28;20802;-69
2023/03/14 01:55:04;;;;;;;12.02;9.70;;;;;;;3.55;59.98;95176.09;4973618;28;20259;-67
2023/03/14 01:57:36;;;;;;;19.02;10.88;;;;;;;3.54;59.38;95174.44;4975752;28;20368;-69
2023/03/14 02:00:11;;;;;;;11.18;9.57;;;;;;;3.55;60.00;95175.28;4977865;28;20431;-66
2023/03/14 02:02:38;;;;;;;12.68;9.80;;;;;;;3.58;60.18;95170.22;4976915;28;20639;-67
2023/03/14 02:05:07;;;;;;;14.97;9.63;;;;;;;3.66;59.87;95163.50;4979198;28;20348;-67
2023/03/14 02:07:40;;;;;;;14.85;10.57;;;;;;;3.69;59.79;95160.97;4976896;28;20327;-68
2023/03/14 02:10:08;;;;;;;17.50;10.27;;;;;;;3.57;60.17;95159.34;4976974;28;20201;-68
2023/03/14 02:12:37;;;;;;;14.80;9.35;;;;;;;3.57;59.80;95164.38;4978632;28;20324;-68
2023/03/14 02:15:05;;;;;;;12.20;9.05;;;;;;;3.57;60.28;95158.50;4976306;28;20304;-68
2023/03/14 02:17:32;;;;;;;17.10;11.45;;;;;;;3.58;60.16;95165.22;4975538;28;21577;-68
2023/03/14 02:20:16;;;;;;;14.20;10.30;;;;;;;3.56;60.53;95159.34;4977534;28;20380;-69
2023/03/14 02:22:46;;;;;;;15.00;10.15;;;;;;;3.38;61.45;95155.25;4978516;28;20266;-69
2023/03/14 02:25:17;;;;;;;15.15;10.30;;;;;;;3.40;61.33;95158.59;4976066;28;20331;-68
2023/03/14 02:27:47;;;;;;;19.25;11.60;;;;;;;3.31;61.67;95151.94;4977623;28;20375;-67
2023/03/14 02:30:16;;;;;;;16.48;10.02;;;;;;;3.33;61.52;95154.44;4977643;28;20304;-69
2023/03/14 02:32:46;;;;;;;19.92;10.52;;;;;;;3.26;61.90;95162.84;4978326;28;20232;-68
2023/03/14 02:35:18;;;;;;;17.65;10.73;;;;;;;3.25;61.72;95166.19;4977181;28;20232;-67
2023/03/14 02:37:49;;;;;;;14.25;10.95;;;;;;;3.10;61.76;95159.56;4976116;28;20299;-69
2023/03/14 02:40:16;;;;;;;13.65;9.88;;;;;;;3.07;61.96;95162.06;4976288;28;20343;-70
2023/03/14 02:42:44;;;;;;;16.83;10.93;;;;;;;3.06;61.83;95160.41;4978158;28;20303;-69
2023/03/14 02:45:37;;;;;;;17.40;10.57;;;;;;;3.02;62.98;95168.78;4975378;28;20307;-67
2023/03/14 02:48:08;;;;;;;12.63;10.73;;;;;;;3.03;62.86;95170.44;4974317;28;20323;-68
2023/03/14 02:50:35;;;;;;;19.33;10.75;;;;;;;2.96;62.89;95168.81;4975681;28;20300;-67
2023/03/14 02:53:02;;;;;;;17.65;11.23;;;;;;;2.90;63.55;95167.16;4974989;28;20296;-69
2023/03/14 02:55:29;;;;;;;16.00;11.82;;;;;;;2.93;63.09;95168.81;4977208;28;20237;-68
2023/03/14 02:57:57;;;;;;;19.05;12.55;;;;;;;2.84;63.00;95173.84;4975796;28;20322;-69
2023/03/14 03:00:24;;;;;;;18.77;11.23;;;;;;;2.82;63.32;95168.84;4976024;28;20642;-68
2023/03/14 03:02:50;;;;;;;12.68;10.38;;;;;;;2.76;63.87;95173.84;4975986;28;20304;-70
2023/03/14 03:05:17;;;;;;;21.67;11.43;;;;;;;2.76;63.74;95170.50;4970446;28;20303;-69
2023/03/14 03:07:44;;;;;;;17.10;11.57;;;;;;;2.81;64.00;95173.84;4974512;28;20295;-69
2023/03/14 03:10:11;;;;;;;20.97;11.70;;;;;;;2.74;63.66;95173.84;4975706;28;20299;-69
2023/03/14 03:12:38;;;;;;;14.93;11.20;;;;;;;2.78;64.25;95173.84;4973604;28;20213;-70
2023/03/14 03:15:07;;;;;;;18.30;12.07;;;;;;;2.71;64.01;95178.06;4975746;28;20718;-66
2023/03/14 03:17:34;;;;;;;17.70;11.70;;;;;;;2.69;64.29;95175.56;4975871;28;20235;-67
2023/03/14 03:20:01;;;;;;;16.98;10.82;;;;;;;2.76;64.48;95176.38;4974914;28;20240;-67
2023/03/14 03:22:27;;;;;;;19.38;11.55;;;;;;;2.81;64.11;95168.84;4976565;28;20303;-68
2023/03/14 03:24:54;;;;;;;19.80;11.13;;;;;;;2.82;63.95;95166.31;4974017;28;20219;-68
2023/03/14 03:27:21;;;;;;;17.83;10.77;;;;;;;2.86;63.63;95169.66;4973919;28;20323;-66
2023/03/14 03:29:47;;;;;;;21.55;11.80;;;;;;;2.90;63.77;95168.81;4974257;28;20760;-66
2023/03/14 03:32:15;;;;;;;15.70;10.82;;;;;;;2.90;63.94;95163.81;4973043;28;20295;-66
2023/03/14 03:34:42;;;;;;;16.80;11.23;;;;;;;2.84;63.26;95168.84;4977087;28;20338;-67
2023/03/14 03:37:09;;;;;;;16.58;10.65;;;;;;;2.77;64.32;95167.16;4977047;28;20279;-67
2023/03/14 03:39:35;;;;;;;17.02;11.32;;;;;;;2.74;63.75;95156.28;4975859;28;20315;-69
2023/03/14 03:42:02;;;;;;;19.55;11.70;;;;;;;2.76;64.16;95161.31;4974981;28;21771;-68
2023/03/14 03:44:29;;;;;;;17.80;11.83;;;;;;;2.71;64.94;95168.03;4975638;28;20821;-66
2023/03/14 03:46:55;;;;;;;14.32;11.15;;;;;;;2.74;63.86;95173.84;4965936;28;21143;-68
2023/03/14 03:49:23;;;;;;;17.63;11.10;;;;;;;2.82;64.72;95176.34;4976577;28;20300;-68
2023/03/14 03:51:50;;;;;;;19.35;10.85;;;;;;;2.83;63.92;95177.19;4975480;28;20248;-69
2023/03/14 03:54:17;;;;;;;15.57;9.77;;;;;;;2.87;64.14;95179.69;4974839;28;20209;-67
2023/03/14 03:56:43;;;;;;;18.67;11.50;;;;;;;2.80;64.37;95178.03;4973890;28;20874;-68
2023/03/14 03:59:10;;;;;;;16.88;10.38;;;;;;;2.84;63.91;95173.84;4975471;28;21641;-67
2023/03/14 04:01:37;;;;;;;18.40;10.60;;;;;;;2.89;63.81;95174.69;4976131;28;20296;-69
2023/03/14 04:04:03;;;;;;;20.73;10.68;;;;;;;2.83;64.41;95175.53;4974313;28;20295;-68
2023/03/14 04:06:31;;;;;;;19.60;11.07;;;;;;;2.86;63.41;95174.69;4978442;28;20243;-69
2023/03/14 04:08:58;;;;;;;18.53;10.53;;;;;;;2.85;63.72;95176.34;4974862;28;20375;-69
2023/03/14 04:11:25;;;;;;;14.60;9.70;;;;;;;2.87;63.49;95173.84;4975422;28;21089;-68
2023/03/14 04:13:51;;;;;;;17.58;10.32;;;;;;;2.90;63.28;95168.81;4974151;28;20327;-68
2023/03/14 04:16:21;;;;;;;14.75;10.95;;;;;;;2.79;64.16;95170.50;4976809;28;20899;-68
2023/03/14 04:18:47;;;;;;;13.73;10.60;;;;;;;2.75;63.50;95167.16;4976015;28;20228;-69
2023/03/14 04:21:14;;;;;;;18.60;11.10;;;;;;;2.66;63.67;95160.50;4974401;28;20699;-69
2023/03/14 04:23:42;;;;;;;12.45;10.68;;;;;;;2.65;63.72;95160.50;4975806;28;20240;-68
2023/03/14 04:26:09;;;;;;;22.77;11.88;;;;;;;2.66;63.60;95155.50;4976974;28;20342;-68
2023/03/14 04:28:36;;;;;;;14.75;11.32;;;;;;;2.64;63.34;95157.16;4974973;28;20332;-69
2023/03/14 04:31:08;;;;;;;14.23;10.57;;;;;;;2.65;63.88;95153.81;4975692;28;20205;-68
2023/03/14 04:33:35;;;;;;;21.05;10.65;;;;;;;2.56;63.21;95143.78;4974751;28;20213;-68
2023/03/14 04:36:02;;;;;;;21.60;11.77;;;;;;;2.53;63.70;95143.78;4977298;28;20630;-68
2023/03/14 04:38:29;;;;;;;19.42;10.85;;;;;;;2.63;63.03;95145.47;4974827;28;20706;-68
2023/03/14 04:40:57;;;;;;;15.30;10.77;;;;;;;2.55;63.01;95134.59;4975993;28;20291;-69
2023/03/14 04:43:25;;;;;;;16.25;10.50;;;;;;;2.47;63.60;95117.91;4976236;28;20312;-69
2023/03/14 04:45:52;;;;;;;13.98;10.63;;;;;;;2.62;63.06;95128.72;4975545;28;20200;-68
2023/03/14 04:48:19;;;;;;;21.02;10.77;;;;;;;2.76;62.32;95125.34;4974659;28;20749;-69
2023/03/14 04:50:47;;;;;;;14.43;10.02;;;;;;;2.71;62.82;95128.72;4977029;28;20280;-69
2023/03/14 04:53:13;;;;;;;29.92;18.77;;;;;;;2.76;62.37;95125.34;4974553;28;20290;-69
2023/03/14 04:55:40;;;;;;;52.60;26.67;;;;;;;2.83;63.31;95122.81;4975474;28;20746;-68
2023/03/14 04:58:08;;;;;;;28.17;16.50;;;;;;;2.93;63.42;95121.13;4977701;28;20228;-68
2023/03/14 05:00:35;;;;;;;24.52;11.32;;;;;;;2.98;62.03;95124.44;4975751;28;20852;-67
2023/03/14 05:03:01;;;;;;;22.17;11.80;;;;;;;3.05;62.05;95123.56;4975541;28;20367;-68
2023/03/14 05:05:28;;;;;;;21.00;11.05;;;;;;;3.17;62.97;95128.56;4975165;28;20377;-69
2023/03/14 05:07:55;;;;;;;19.25;11.80;;;;;;;3.15;62.75;95121.88;4976409;28;20302;-69
2023/03/14 05:10:21;;;;;;;19.13;11.88;;;;;;;3.26;61.83;95118.47;4976291;28;20244;-69
2023/03/14 05:12:48;;;;;;;19.83;12.30;;;;;;;3.38;62.03;95123.44;4976373;28;20323;-68
2023/03/14 05:15:16;;;;;;;36.28;18.67;;;;;;;3.65;61.29;95117.44;4975472;28;20305;-68
2023/03/14 05:17:43;;;;;;;36.25;19.85;;;;;;;5.27;58.61;95111.72;4975413;28;20244;-69
2023/03/14 05:20:12;;;;;;;31.40;14.80;;;;;;;7.54;52.23;95109.63;4973647;28;20728;-69
2023/03/14 05:22:39;;;;;;;23.85;12.48;;;;;;;9.56;47.22;95094.44;4975422;28;20209;-69
2023/03/14 05:25:07;;;;;;;15.02;11.40;;;;;;;11.04;43.46;95077.81;4974078;28;20735;-69
2023/03/14 05:27:34;;;;;;;22.13;11.82;;;;;;;11.91;41.24;95085.66;4974679;28;20319;-68
2023/03/14 05:30:01;;;;;;;17.90;10.77;;;;;;;12.38;40.21;95094.88;4974706;28;20297;-68
2023/03/14 05:32:29;;;;;;;18.13;11.43;;;;;;;13.15;37.71;95084.00;4975472;28;20781;-68
2023/03/14 05:34:58;;;;;;;15.93;11.15;;;;;;;14.45;35.13;95086.56;4978932;28;20269;-68
2023/03/14 05:37:25;;;;;;;19.13;11.95;;;;;;;16.00;32.22;95082.91;4978837;28;20596;-69
2023/03/14 05:39:52;;;;;;;22.17;12.88;;;;;;;17.14;30.14;95078.16;4978825;28;20345;-69
2023/03/14 05:42:18;;;;;;;19.75;12.88;;;;;;;17.86;28.88;95082.38;4979712;28;20295;-70
2023/03/14 05:44:45;;;;;;;20.50;12.27;;;;;;;18.35;28.13;95078.38;4980490;28;20283;-69
2023/03/14 05:47:12;;;;;;;17.45;11.50;;;;;;;18.61;26.96;95081.88;4980020;28;20304;-70
2023/03/14 05:49:40;;;;;;;15.18;11.93;;;;;;;19.37;25.98;95069.06;4978013;28;20269;-69
2023/03/14 05:52:06;;;;;;;24.58;16.90;;;;;;;20.51;24.69;95070.59;4978566;28;20236;-69
2023/03/14 05:54:33;;;;;;;18.10;14.38;;;;;;;21.42;23.62;95072.47;4978228;28;20312;-68
2023/03/14 05:57:00;;;;;;;18.05;14.43;;;;;;;22.19;22.74;95076.78;4978990;28;20348;-69
2023/03/14 05:59:27;;;;;;;17.08;11.77;;;;;;;22.71;22.11;95068.25;4978451;28;20311;-70
2023/03/14 06:01:53;;;;;;;16.05;12.48;;;;;;;22.70;21.51;95070.97;4978420;28;20335;-70
2023/03/14 06:04:20;;;;;;;13.48;12.13;;;;;;;22.55;21.48;95064.44;4979987;28;20233;-70
2023/03/14 06:06:48;;;;;;;17.67;12.23;;;;;;;21.55;22.27;95068.81;4978893;28;20237;-69
2023/03/14 06:09:15;;;;;;;17.38;13.10;;;;;;;20.20;23.34;95068.53;4978960;28;20301;-71
2023/03/14 06:11:41;;;;;;;22.63;11.93;;;;;;;18.66;25.12;95079.00;4981163;28;20210;-70
2023/03/14 06:14:08;;;;;;;14.73;11.90;;;;;;;17.32;26.77;95067.59;4978282;28;20300;-69
2023/03/14 06:16:35;;;;;;;15.75;12.35;;;;;;;16.38;28.30;95083.34;4978443;28;20797;-69
2023/03/14 06:19:02;;;;;;;17.40;12.95;;;;;;;16.16;28.96;95082.88;4979133;28;20852;-69
2023/03/14 06:21:28;;;;;;;15.77;12.25;;;;;;;15.66;29.44;95081.31;4979841;28;20336;-69
2023/03/14 06:23:56;;;;;;;17.27;12.57;;;;;;;15.08;30.67;95093.72;4977215;28;20233;-69
2023/03/14 06:26:23;;;;;;;20.95;13.43;;;;;;;15.47;30.40;95085.72;4979119;28;20320;-69
2023/03/14 06:28:53;;;;;;;14.48;11.98;;;;;;;16.23;29.26;95097.03;4979353;28;20302;-70
2023/03/14 06:31:20;;;;;;;16.05;11.90;;;;;;;16.45;28.72;95088.97;4980590;28;20215;-69
2023/03/14 06:33:47;;;;;;;23.50;12.30;;;;;;;16.31;28.93;95087.19;4979326;28;21489;-69
2023/03/14 06:36:13;;;;;;;17.45;11.68;;;;;;;15.92;29.59;95077.34;4979235;28;20244;-69
2023/03/14 06:38:40;;;;;;;15.00;11.45;;;;;;;16.25;29.43;95067.81;4977514;28;20323;-70
2023/03/14 06:41:08;;;;;;;20.17;11.75;;;;;;;17.11;28.07;95062.91;4979494;28;20212;-68
2023/03/14 06:43:35;;;;;;;22.55;12.07;;;;;;;17.74;27.67;95073.69;4976223;28;20308;-68
2023/03/14 06:46:02;;;;;;;14.60;12.90;;;;;;;19.18;25.52;95070.44;4977942;28;20761;-70
2023/03/14 06:48:28;;;;;;;15.93;12.00;;;;;;;21.17;23.87;95055.38;4977490;28;21350;-71
2023/03/14 06:50:55;;;;;;;22.83;11.85;;;;;;;23.22;21.87;95053.75;4979013;28;20300;-70
2023/03/14 06:53:22;;;;;;;40.35;23.38;;;;;;;25.16;19.63;95038.47;4977517;28;20213;-68
2023/03/14 06:55:49;;;;;;;26.83;16.65;;;;;;;26.65;18.50;95039.94;4976753;28;20237;-69
2023/03/14 06:58:17;;;;;;;45.13;19.95;;;;;;;26.78;18.23;95026.50;4977462;28;20292;-70
2023/03/14 07:00:44;;;;;;;19.70;13.55;;;;;;;26.62;17.84;95021.16;4977232;28;21390;-72
2023/03/14 07:03:11;;;;;;;24.67;14.38;;;;;;;25.84;18.48;95035.63;4978570;28;20283;-69
2023/03/14 07:05:40;;;;;;;18.45;13.50;;;;;;;25.09;19.26;95029.56;4975867;28;20320;-70
2023/03/14 07:08:07;;;;;;;14.85;13.30;;;;;;;24.48;19.49;95029.88;4976651;28;20750;-70
2023/03/14 07:10:33;;;;;;;19.80;13.15;;;;;;;24.27;19.53;95027.38;4977289;28;20322;-70
2023/03/14 07:13:00;;;;;;;14.82;13.32;;;;;;;24.29;19.51;95029.84;4976922;28;20296;-72
2023/03/14 07:15:28;;;;;;;23.70;13.40;;;;;;;23.73;19.68;95033.00;4976169;28;20748;-70
2023/03/14 07:17:55;;;;;;;21.38;13.68;;;;;;;23.12;20.68;95038.13;4977547;28;20355;-71
2023/03/14 07:20:21;;;;;;;22.52;17.23;;;;;;;24.00;20.66;95028.00;4977800;28;20323;-69
2023/03/14 07:22:50;;;;;;;24.75;16.42;;;;;;;25.48;19.27;95025.09;4977747;28;20695;-71
2023/03/14 07:25:17;;;;;;;24.08;15.05;;;;;;;25.84;18.46;95027.81;4976889;28;21673;-69
2023/03/14 07:27:45;;;;;;;23.90;16.05;;;;;;;25.68;18.65;95026.66;4977330;28;20328;-70
2023/03/14 07:30:12;;;;;;;25.23;16.90;;;;;;;25.94;18.45;95020.78;4979025;28;20212;-72
2023/03/14 07:32:40;;;;;;;20.73;16.40;;;;;;;26.71;17.94;95015.88;4978077;28;20316;-71
2023/03/14 07:35:08;;;;;;;17.73;14.50;;;;;;;27.12;17.44;95008.38;4975897;28;20237;-70
2023/03/14 07:37:35;;;;;;;22.70;14.35;;;;;;;27.55;17.05;95010.06;4976069;28;20245;-71
2023/03/14 07:40:05;;;;;;;24.92;15.52;;;;;;;28.73;16.30;94996.03;4975310;28;20325;-72
2023/03/14 07:42:31;;;;;;;16.85;13.85;;;;;;;29.06;15.95;94997.69;4976090;28;21465;-71
2023/03/14 07:44:58;;;;;;;19.42;13.68;;;;;;;29.62;15.14;94998.56;4975993;28;20301;-71
2023/03/14 07:47:25;;;;;;;23.35;15.32;;;;;;;30.30;14.94;94984.81;4979651;28;20735;-72
2023/03/14 07:49:53;;;;;;;17.52;13.50;;;;;;;30.90;14.88;94989.31;4975481;28;20237;-71
2023/03/14 07:52:19;;;;;;;15.02;13.27;;;;;;;30.40;15.08;94988.03;4978413;28;20209;-71
2023/03/14 07:54:46;;;;;;;15.63;13.02;;;;;;;30.15;14.82;94994.41;4974217;28;20323;-70
2023/03/14 07:57:13;;;;;;;17.83;13.57;;;;;;;30.33;14.71;94987.09;4975637;28;20299;-70
2023/03/14 07:59:39;;;;;;;20.40;13.60;;;;;;;31.03;14.53;94989.50;4974402;28;21841;-72
2023/03/14 08:02:10;;;;;;;27.25;13.98;;;;;;;31.30;14.67;94987.31;4974839;28;20241;-71
2023/03/14 08:04:37;;;;;;;17.38;13.70;;;;;;;32.87;13.25;94978.84;4977085;28;20287;-69
2023/03/14 08:07:05;;;;;;;20.35;13.88;;;;;;;33.79;12.88;94975.03;4977460;28;20213;-70
2023/03/14 08:09:32;;;;;;;21.95;13.80;;;;;;;34.13;13.02;94981.25;4975288;28;20232;-70
2023/03/14 08:11:59;;;;;;;16.33;13.73;;;;;;;34.16;12.95;94983.47;4977418;28;20299;-73
2023/03/14 08:14:25;;;;;;;26.90;14.60;;;;;;;35.26;11.96;94977.75;4975649;28;20352;-72
2023/03/14 08:16:52;;;;;;;19.15;13.13;;;;;;;35.46;12.10;94973.25;4974121;28;20298;-70
2023/03/14 08:19:19;;;;;;;17.25;13.13;;;;;;;36.10;11.41;94969.81;4974391;28;20331;-70
2023/03/14 08:21:45;;;;;;;15.52;13.50;;;;;;;35.55;11.91;94970.41;4976007;28;20832;-69
2023/03/14 08:24:13;;;;;;;25.45;12.23;;;;;;;35.58;11.36;94970.81;4976303;28;20300;-69
2023/03/14 08:26:40;;;;;;;13.13;11.70;;;;;;;34.66;11.51;94970.81;4975655;28;20324;-71
2023/03/14 08:29:07;;;;;;;19.63;12.40;;;;;;;33.26;12.00;94973.91;4977480;28;20240;-70
2023/03/14 08:31:35;;;;;;;12.07;9.50;;;;;;;31.42;12.86;94968.31;4976813;28;20205;-71
2023/03/14 08:34:02;;;;;;;16.05;10.35;;;;;;;30.75;13.65;94965.63;4975500;28;21596;-71
2023/03/14 08:36:30;;;;;;;12.98;10.25;;;;;;;29.98;13.98;94956.97;4976311;28;20209;-71
2023/03/14 08:38:57;;;;;;;14.45;8.98;;;;;;;30.05;14.26;94947.44;4976357;28;20592;-71
2023/03/14 08:41:25;;;;;;;8.77;8.05;;;;;;;30.83;12.81;94951.63;4976200;28;20339;-71
2023/03/14 08:43:52;;;;;;;11.48;8.23;;;;;;;30.96;13.35;94951.81;4978302;28;20197;-71
2023/03/14 08:46:19;;;;;;;9.95;7.50;;;;;;;29.86;13.75;94947.03;4976102;28;20757;-71
2023/03/14 08:48:45;;;;;;;6.45;5.85;;;;;;;28.76;14.12;94944.22;4975300;28;20696;-71
2023/03/14 08:51:14;;;;;;;6.72;6.13;;;;;;;28.45;14.54;94940.66;4974660;28;20292;-71
2023/03/14 08:53:41;;;;;;;9.43;6.20;;;;;;;28.19;14.74;94919.03;4975693;28;20617;-69
2023/03/14 08:56:10;;;;;;;6.88;6.28;;;;;;;27.55;15.15;94936.97;4976033;28;20342;-71
2023/03/14 08:58:38;;;;;;;10.77;6.65;;;;;;;26.83;15.93;94919.97;4976708;28;20206;-72
2023/03/14 09:01:05;;;;;;;7.50;6.93;;;;;;;26.89;16.27;94923.75;4975731;28;20232;-71
2023/03/14 09:03:32;;;;;;;14.18;6.88;;;;;;;27.09;15.82;94912.97;4974215;28;20204;-70
2023/03/14 09:06:04;;;;;;;7.32;6.50;;;;;;;25.87;16.05;94920.78;4975024;28;20228;-71
2023/03/14 09:08:31;;;;;;;9.60;6.75;;;;;;;24.19;17.24;94907.78;4975191;28;20235;-71
2023/03/14 09:10:57;;;;;;;8.00;7.22;;;;;;;21.29;19.97;94913.13;4973739;28;20773;-71
2023/03/14 09:13:24;;;;;;;10.15;6.78;;;;;;;20.69;20.85;94903.97;4975889;28;20292;-70
2023/03/14 09:15:53;;;;;;;9.43;6.97;;;;;;;20.59;21.05;94900.44;4975896;28;20303;-71
2023/03/14 09:18:20;;;;;;;6.68;5.70;;;;;;;20.22;21.29;94899.75;4974581;28;20291;-69
2023/03/14 09:20:47;;;;;;;9.20;6.30;;;;;;;17.47;23.98;94901.44;4974119;28;20350;-69
2023/03/14 09:23:14;;;;;;;9.10;6.35;;;;;;;17.17;24.74;94898.22;4976997;28;20232;-69
2023/03/14 09:25:40;;;;;;;7.13;6.47;;;;;;;16.16;25.12;94888.03;4974163;28;20292;-68
2023/03/14 09:28:07;;;;;;;11.82;5.53;;;;;;;14.96;26.56;94893.81;4973711;28;20374;-70
2023/03/14 09:30:34;;;;;;;7.13;6.22;;;;;;;14.52;27.44;94891.03;4973319;28;20655;-69
2023/03/14 09:33:02;;;;;;;6.78;5.75;;;;;;;13.84;28.08;94890.19;4974807;28;20313;-70
2023/03/14 09:35:28;;;;;;;10.32;5.47;;;;;;;13.56;29.25;94888.16;4975953;28;20241;-70
2023/03/14 09:37:55;;;;;;;6.47;5.07;;;;;;;13.50;29.31;94885.88;4974195;28;20292;-70
2023/03/14 09:40:23;;;;;;;10.25;4.72;;;;;;;13.43;29.00;94879.41;4971911;28;20312;-70
2023/03/14 09:42:53;;;;;;;6.22;4.25;;;;;;;13.15;29.47;94869.66;4976254;28;20224;-69
2023/03/14 09:45:26;;;;;;;6.07;4.88;;;;;;;13.00;29.44;94869.53;4974149;28;20674;-70
2023/03/14 09:47:53;;;;;;;8.15;4.97;;;;;;;13.17;29.65;94861.94;4972908;28;20300;-69
2023/03/14 09:50:22;;;;;;;8.13;5.25;;;;;;;13.12;29.69;94849.38;4974173;28;20300;-70
2023/03/14 09:52:53;;;;;;;5.55;5.10;;;;;;;13.18;30.08;94848.28;4975203;28;20825;-70
2023/03/14 09:55:22;;;;;;;6.50;5.95;;;;;;;13.15;30.78;94854.38;4975630;28;20213;-69
2023/03/14 09:57:51;;;;;;;11.02;5.70;;;;;;;13.22;30.16;94849.81;4973549;28;20214;-70
2023/03/14 10:00:22;;;;;;;10.77;6.18;;;;;;;13.31;30.95;94839.16;4972958;28;20344;-68
2023/03/14 10:02:54;;;;;;;8.23;5.85;;;;;;;13.40;30.39;94831.06;4972781;28;20810;-70
2023/03/14 10:05:24;;;;;;;8.25;6.03;;;;;;;13.52;30.74;94822.81;4975337;28;20333;-70
2023/03/14 10:07:51;;;;;;;7.10;6.40;;;;;;;13.88;30.12;94820.16;4973630;28;20682;-70
2023/03/14 10:10:20;;;;;;;8.15;5.20;;;;;;;14.48;28.87;94812.00;4973236;28;20232;-70
2023/03/14 10:12:55;;;;;;;8.63;5.85;;;;;;;14.76;28.67;94809.66;4972972;28;20288;-72
2023/03/14 10:15:26;;;;;;;8.68;6.25;;;;;;;14.60;28.72;94808.78;4972528;28;20291;-70
2023/03/14 10:17:53;;;;;;;5.85;5.40;;;;;;;14.52;28.83;94799.00;4973120;28;20762;-70
2023/03/14 10:20:33;;;;;;;9.93;5.57;;;;;;;14.40;28.17;94780.88;4976079;28;20268;-71
2023/03/14 10:23:01;;;;;;;6.28;5.00;;;;;;;14.34;27.84;94788.88;4975501;28;20204;-68
2023/03/14 10:25:29;;;;;;;5.45;4.95;;;;;;;14.20;28.25;94781.91;4977618;28;20315;-68
2023/03/14 10:27:56;;;;;;;5.38;4.22;;;;;;;14.16;27.79;94778.69;4939276;28;1123125;-69
2023/03/14 10:30:34;;;;;;;5.45;4.30;;;;;;;14.24;28.28;94771.47;4977825;28;20335;-69
2023/03/14 10:33:09;;;;;;;7.32;5.45;;;;;;;14.33;29.07;94769.34;4978996;28;20291;-68
2023/03/14 10:35:38;;;;;;;6.45;5.65;;;;;;;14.30;28.12;94758.38;4978836;28;20568;-69
2023/03/14 10:38:05;;;;;;;5.95;4.80;;;;;;;14.14;29.16;94749.84;4976042;28;20247;-70
2023/03/14 10:40:34;;;;;;;5.25;4.78;;;;;;;14.29;28.59;94743.94;4976612;28;20229;-70
2023/03/14 10:43:04;;;;;;;6.10;5.50;;;;;;;14.44;28.72;94731.25;4977186;28;20335;-72
2023/03/14 10:45:39;;;;;;;8.30;5.75;;;;;;;14.50;29.64;94728.38;4975850;28;20291;-70
2023/03/14 10:48:21;;;;;;;14.05;5.85;;;;;;;14.37;29.57;94719.69;4976737;28;20846;-70
2023/03/14 10:50:56;;;;;;;6.55;5.78;;;;;;;14.27;29.61;94712.53;4977887;28;20278;-71
2023/03/14 10:53:23;;;;;;;9.10;6.75;;;;;;;14.53;29.98;94705.22;4978596;28;20228;-70
2023/03/14 10:55:50;;;;;;;7.03;6.00;;;;;;;14.84;30.14;94705.19;4977284;28;21137;-70
2023/03/14 10:58:22;;;;;;;7.45;6.10;;;;;;;15.15;30.14;94693.19;4978021;28;20266;-70
2023/03/14 11:00:54;;;;;;;6.88;6.18;;;;;;;15.11;30.25;94691.72;4979274;28;20391;-70
2023/03/14 11:03:22;;;;;;;8.73;6.07;;;;;;;15.08;30.33;94682.50;4978137;28;21555;-70
2023/03/14 11:05:56;;;;;;;7.68;6.40;;;;;;;15.22;29.93;94679.97;4977718;28;20320;-71
2023/03/14 11:08:28;;;;;;;7.50;5.50;;;;;;;15.54;30.05;94665.28;4977685;28;20753;-70
2023/03/14 11:11:03;;;;;;;8.05;5.60;;;;;;;15.87;30.20;94662.47;4976834;28;20676;-70
2023/03/14 11:13:36;;;;;;;9.40;5.78;;;;;;;15.96;29.61;94650.84;4978139;28;20682;-71
2023/03/14 11:16:10;;;;;;;5.38;4.97;;;;;;;15.62;30.52;94650.28;4977106;28;20296;-70
2023/03/14 11:19:11;;;;;;;5.18;4.68;;;;;;;15.57;31.14;94639.53;4978064;28;20714;-69
2023/03/14 11:21:47;;;;;;;7.88;4.50;;;;;;;15.40;31.14;94636.28;4976964;28;20253;-70
2023/03/14 11:24:28;;;;;;;4.80;4.25;;;;;;;15.07;31.68;94626.28;4976740;28;20283;-70
2023/03/14 11:27:05;;;;;;;4.50;4.18;;;;;;;15.03;31.63;94622.25;4969049;28;20280;-71
2023/03/14 11:29:40;;;;;;;6.75;4.20;;;;;;;14.90;31.81;94617.00;4977992;28;20215;-71
2023/03/14 11:32:14;;;;;;;4.15;3.85;;;;;;;14.79;32.27;94619.38;4975149;28;20791;-71